• Join FlightAware (Why Join?)
  • Login
  • US Flag 
08:42AM EDT


 

Airport Tracker/Info


-or-


 

Live Flight TrackerFlight Track Log ✈ KAP305 ✈ 18-Jun-2013 ✈ KALB - KBOS

Flight Track Log - Related Links

Times and Time Zones

All times are in EDT time to prevent confusion due to time zone crossing. See the KAP305 flight status page for this flight to view local times or setup timezone preferences in your user account.

Time Position Orientation Groundspeed Altitude Reporting Facility
EDT Latitude Longitude Course Direction KTS MPH feet Rate Location/Type
07:50AM 42.7611 -73.6194 87° East 122 140 3,100  Level Boston Center
07:51AM 42.7639 -73.5486 87° East 133 153 3,800 480 Climbing Boston Center
07:53AM 42.7686 -73.4836 84° East 140 161 4,500 600 Climbing Boston Center
07:54AM 42.7692 -73.4300 89° East 144 166 5,100 540 Climbing Boston Center
07:55AM 42.7758 -73.3764 80° East 146 168 5,600 480 Climbing Boston Center
07:56AM 42.7722 -73.3197 95° East 153 176 6,100 480 Climbing Boston Center
07:57AM 42.7622 -73.2603 103° East 159 183 6,600 420 Climbing Boston Center
07:58AM 42.7542 -73.2036 101° East 181 208 7,000 180 Climbing Boston Center
07:59AM 42.7400 -73.1356 106° East 181 208 7,000  Level Boston Center
08:00AM 42.7258 -73.0592 104° East 181 208 7,000  Level Boston Center
08:01AM 42.7139 -72.9883 103° East 181 208 7,000  Level Boston Center
08:02AM 42.7036 -72.9175 101° East 181 208 7,000  Level Boston Center
08:03AM 42.6894 -72.8469 105° East 181 208 7,000  Level Boston Center
08:04AM 42.6792 -72.7789 102° East 181 208 7,000  Level Boston Center
08:05AM 42.6669 -72.7111 104° East 181 208 7,000  Level Boston Center
08:06AM 42.6544 -72.6406 104° East 181 208 7,000  Level Boston Center
08:07AM 42.6422 -72.5728 104° East 181 208 7,000  Level Boston Center
08:08AM 42.6317 -72.5022 101° East 181 208 7,000  Level Boston Center
08:09AM 42.6172 -72.4344 106° East 181 208 7,000  Level Boston Center
08:10AM 42.6047 -72.3639 104° East 181 208 7,000  Level Boston Center
08:11AM 42.5919 -72.2961 104° East 181 208 7,000  Level Boston Center
08:12AM 42.5775 -72.2286 106° East 186 214 7,000  Level Boston Center
08:13AM 42.5606 -72.1469 106° East 186 214 7,000  Level Boston Center
08:14AM 42.5478 -72.0708 103° East 186 214 7,000  Level Boston Center
08:15AM 42.5414 -72.0061 98° East 185 213 7,000  Level Boston Center
08:16AM 42.5347 -71.9244 96° East 185 213 7,000  Level Boston Center
08:17AM 42.5281 -71.8625 98° East 185 213 7,000  Level Boston Center
08:18AM 42.5214 -71.7839 97° East 185 213 7,000  Level Boston Center
08:19AM 42.5169 -71.7189 95° East 191 220 7,000  Level Boston Center
08:20AM 42.5100 -71.6403 97° East 191 220 7,000  Level Boston Center
08:20AM 42.5000 -71.5833 103° East 192 221 7,000  Level KA90
08:21AM 42.5000 -71.5167 90° East 194 223 7,000 -300 Level KA90
08:22AM 42.4833 -71.4500 109° East 201 231 6,500 -540 Descending KA90
08:23AM 42.4833 -71.3667 90° East 218 251 6,000 -600 Descending KA90
08:24AM 42.4667 -71.2833 105° East 213 245 5,400 -540 Descending KA90
08:25AM 42.4667 -71.2167 90° East 205 236 5,000 -240 Descending KA90
08:26AM 42.4500 -71.1500 109° East 183 211 5,000  Level KA90
08:27AM 42.4000 -71.1667 194° South 160 184 5,000 -240 Level KA90
08:28AM 42.3667 -71.1833 200° South 168 193 4,600 -360 Descending KA90
08:29AM 42.3519 -71.1900 199° South 167 192 4,500 -660 Descending Boston Center
08:30AM 42.2869 -71.1744 170° South 182 209 3,600 -780 Descending Boston Center
08:31AM 42.2492 -71.1358 143° Southeast 188 216 3,000 -720 Descending Boston Center
08:33AM 42.2833 -71.0500 62° Northeast 162 186 1,800 -840 Descending KA90
08:33AM 42.3167 -71.0333 20° North 150 173 1,100 -840 Descending KA90
08:34AM 42.3500 -71.0167 20° North 126 145 300 -780 Descending KA90
08:36AM 42.3630 -71.0064 31° Northeast  Level Estimated
08:43AM 42.3630 -71.0064 204° Southwest  Level Estimated